Time;durP1;ratioP1;P1;durP2;ratioP2;P2;SDS_P1;SDS_P2;PMS_P1;PMS_P2;Temp;Humidity;BMP_temperature;BMP_pressure;BME280_temperature;BME280_humidity;BME280_pressure;Samples;Min_cycle;Max_cycle;Signal;HPM_P1;HPM_P2
2022/06/03 00:03:07;;;;;;;15.30;8.80;;;;;;;-147.90;100.00;59510.75;4963553;28;20039;-90
2022/06/03 00:06:09;;;;;;;16.67;8.60;;;;;;;-147.90;100.00;59510.75;4913198;28;20070;-92
2022/06/03 00:09:08;;;;;;;15.73;9.38;;;;;;;-147.90;100.00;59510.75;4970211;28;20094;-92
2022/06/03 00:12:12;;;;;;;17.35;9.90;;;;;;;-147.90;100.00;59510.75;4966747;28;20110;-91
2022/06/03 00:15:01;;;;;;;17.63;9.80;;;;;;;-147.90;100.00;59510.75;4969691;28;20113;-92
2022/06/03 00:17:56;;;;;;;18.73;10.32;;;;;;;-147.90;100.00;59510.75;4969797;28;20047;-91
2022/06/03 00:20:35;;;;;;;16.67;9.32;;;;;;;-147.90;100.00;59510.75;4968063;28;20549;-92
2022/06/03 00:23:35;;;;;;;17.27;9.63;;;;;;;-147.90;100.00;59510.75;4968840;28;20101;-92
2022/06/03 00:26:29;;;;;;;20.00;10.38;;;;;;;-147.90;100.00;59510.75;4964347;28;20047;-91
2022/06/03 00:29:12;;;;;;;23.33;11.35;;;;;;;-147.90;100.00;59510.75;4964746;28;20039;-91
2022/06/03 00:31:59;;;;;;;22.20;11.35;;;;;;;-147.90;100.00;59510.75;4969287;28;20074;-93
2022/06/03 00:34:44;;;;;;;23.88;11.45;;;;;;;-147.90;100.00;59510.75;4969750;28;20623;-91
2022/06/03 00:37:24;;;;;;;22.52;12.32;;;;;;;-147.90;100.00;59510.75;4969624;28;20523;-92
2022/06/03 00:40:01;;;;;;;23.35;12.07;;;;;;;-147.90;100.00;59510.75;4971331;28;20055;-92
2022/06/03 00:42:52;;;;;;;22.20;11.80;;;;;;;-147.90;100.00;59510.75;4973529;28;20486;-92
2022/06/03 00:45:59;;;;;;;26.15;12.98;;;;;;;-147.90;100.00;59510.75;4972061;28;20101;-93
2022/06/03 00:48:37;;;;;;;20.88;11.32;;;;;;;-147.90;100.00;59510.75;4909033;29;20134;-93
2022/06/03 00:51:27;;;;;;;25.85;11.30;;;;;;;-147.90;100.00;59510.75;4933776;29;20103;-93
2022/06/03 00:54:13;;;;;;;27.40;12.52;;;;;;;-147.90;100.00;59510.75;4934214;29;20130;-93
2022/06/03 00:57:02;;;;;;;25.98;13.27;;;;;;;-147.90;100.00;59510.75;4934273;29;20044;-93
2022/06/03 00:59:51;;;;;;;25.52;13.32;;;;;;;-147.90;100.00;59510.75;4934937;29;20107;-93
2022/06/03 01:02:46;;;;;;;23.35;12.90;;;;;;;-147.90;100.00;59510.75;4933360;29;20048;-91
2022/06/03 01:05:22;;;;;;;27.05;13.90;;;;;;;-147.90;100.00;59510.75;4934269;29;20573;-93
2022/06/03 01:08:01;;;;;;;32.42;18.20;;;;;;;-147.90;100.00;59510.75;4933426;29;20091;-92
2022/06/03 01:10:52;;;;;;;27.17;14.80;;;;;;;-147.90;100.00;59510.75;4934288;29;20047;-92
2022/06/03 01:13:28;;;;;;;28.67;14.93;;;;;;;-147.90;100.00;59510.75;4934805;29;21193;-93
2022/06/03 01:16:00;;;;;;;27.00;14.70;;;;;;;-147.90;100.00;59510.75;4933760;29;20048;-93
2022/06/03 01:18:41;;;;;;;31.25;14.93;;;;;;;-147.90;100.00;59510.75;4934339;29;20079;-93
2022/06/03 01:21:20;;;;;;;30.23;14.65;;;;;;;-147.90;100.00;59510.75;4933257;29;20189;-91
2022/06/03 01:24:22;;;;;;;25.00;14.13;;;;;;;-147.90;100.00;59510.75;4934415;29;20115;-93
2022/06/03 01:27:12;;;;;;;28.60;13.93;;;;;;;-147.90;100.00;59510.75;4932625;29;20111;-94
2022/06/03 01:30:04;;;;;;;22.60;12.52;;;;;;;-147.90;100.00;59510.75;4933183;29;20098;-92
2022/06/03 01:33:10;;;;;;;22.27;12.82;;;;;;;-147.90;100.00;59510.75;4933745;29;20047;-92
2022/06/03 01:36:23;;;;;;;28.10;12.35;;;;;;;-147.90;100.00;59510.75;4929503;29;20055;-92
2022/06/03 01:39:18;;;;;;;27.23;12.40;;;;;;;-147.90;100.00;59510.75;4932209;29;20052;-92
2022/06/03 01:42:16;;;;;;;24.65;12.77;;;;;;;-147.90;100.00;59510.75;4933617;29;20047;-92
2022/06/03 01:45:15;;;;;;;26.73;12.65;;;;;;;-147.90;100.00;59510.75;4933912;29;20047;-91
2022/06/03 01:48:09;;;;;;;24.65;12.95;;;;;;;-147.90;100.00;59510.75;4953607;28;20059;-92
2022/06/03 01:51:03;;;;;;;29.10;14.10;;;;;;;-147.90;100.00;59510.75;4970065;28;20105;-93
2022/06/03 01:54:00;;;;;;;30.33;14.87;;;;;;;-147.90;100.00;59510.75;4971716;28;20043;-92
2022/06/03 01:56:42;;;;;;;34.85;16.98;;;;;;;-147.90;100.00;59510.75;4971258;28;20359;-93
2022/06/03 01:59:54;;;;;;;31.25;16.15;;;;;;;-147.90;100.00;59510.75;4970913;28;20042;-93
2022/06/03 02:02:52;;;;;;;38.95;18.15;;;;;;;-147.90;100.00;59510.75;4936176;28;20442;-93
2022/06/03 02:06:09;;;;;;;37.55;16.50;;;;;;;-147.90;100.00;59510.75;4971928;28;20098;-93
2022/06/03 02:09:09;;;;;;;38.30;17.92;;;;;;;-147.90;100.00;59510.75;4883887;29;20461;-92
2022/06/03 02:11:53;;;;;;;34.63;19.20;;;;;;;-147.90;100.00;59510.75;4967831;28;20051;-91
2022/06/03 02:15:01;;;;;;;32.45;18.58;;;;;;;-147.90;100.00;59510.75;4971697;28;20125;-91
2022/06/03 02:18:09;;;;;;;30.30;17.02;;;;;;;-147.90;100.00;59510.75;4959867;28;20502;-92
2022/06/03 02:21:02;;;;;;;34.10;18.70;;;;;;;-147.90;100.00;59510.75;4942364;28;20113;-91
2022/06/03 02:24:01;;;;;;;31.60;18.35;;;;;;;-147.90;100.00;59510.75;4970648;28;20560;-92
2022/06/03 02:26:43;;;;;;;31.38;18.35;;;;;;;-147.90;100.00;59510.75;4937728;28;20050;-92
2022/06/03 02:33:02;;;;;;;32.58;18.23;;;;;;;-147.90;100.00;59510.75;4970364;28;20057;-91
2022/06/03 02:35:53;;;;;;;31.65;17.50;;;;;;;-147.90;100.00;59510.75;4939004;28;20051;-91
2022/06/03 02:38:57;;;;;;;33.65;18.90;;;;;;;-147.90;100.00;59510.75;4971228;28;20141;-91
2022/06/03 02:41:49;;;;;;;32.20;18.25;;;;;;;-147.90;100.00;59510.75;4969640;28;20508;-91
2022/06/03 02:44:43;;;;;;;34.67;18.45;;;;;;;-147.90;100.00;59510.75;4970729;28;20453;-92
2022/06/03 02:47:45;;;;;;;33.13;18.13;;;;;;;-147.90;100.00;59510.75;4971447;28;20054;-91
2022/06/03 02:50:48;;;;;;;38.60;17.45;;;;;;;-147.90;100.00;59510.75;4969981;28;20535;-90
2022/06/03 02:53:43;;;;;;;39.60;18.95;;;;;;;-147.90;100.00;59510.75;4923947;28;20082;-92
2022/06/03 02:56:40;;;;;;;37.20;18.83;;;;;;;-147.90;100.00;59510.75;4964438;28;20042;-90
2022/06/03 02:59:46;;;;;;;35.90;18.13;;;;;;;-147.90;100.00;59510.75;4971289;28;20050;-92
2022/06/03 03:02:39;;;;;;;37.10;19.27;;;;;;;-147.90;100.00;59510.75;4968945;28;20449;-90
2022/06/03 03:05:28;;;;;;;33.58;18.58;;;;;;;-147.90;100.00;59510.75;4970784;28;20050;-91
2022/06/03 03:08:32;;;;;;;41.33;19.60;;;;;;;-147.90;100.00;59510.75;4969184;28;20043;-91
2022/06/03 03:11:26;;;;;;;29.13;16.92;;;;;;;-147.90;100.00;59510.75;4969829;28;20046;-91
2022/06/03 03:14:15;;;;;;;33.85;16.67;;;;;;;-147.90;100.00;59510.75;4970719;28;20053;-90
2022/06/03 03:16:58;;;;;;;38.72;18.20;;;;;;;-147.90;100.00;59510.75;4968955;28;20493;-91
2022/06/03 03:19:58;;;;;;;37.47;18.38;;;;;;;-147.90;100.00;59510.75;4970881;28;20043;-91
2022/06/03 03:22:50;;;;;;;36.20;17.20;;;;;;;-147.90;100.00;59510.75;4966553;28;20057;-90
2022/06/03 03:25:33;;;;;;;31.83;17.27;;;;;;;-147.90;100.00;59510.75;4970993;28;20117;-89
2022/06/03 03:28:24;;;;;;;39.97;18.98;;;;;;;-147.90;100.00;59510.75;4969063;28;20043;-90
2022/06/03 03:31:05;;;;;;;37.10;18.15;;;;;;;-147.90;100.00;59510.75;4970142;28;20544;-89
2022/06/03 03:33:56;;;;;;;38.47;19.02;;;;;;;-147.90;100.00;59510.75;4969138;28;20457;-89
2022/06/03 03:37:06;;;;;;;38.78;17.25;;;;;;;-147.90;100.00;59510.75;4969947;28;20046;-91
2022/06/03 03:40:09;;;;;;;33.72;17.52;;;;;;;-147.90;100.00;59510.75;4928305;28;20075;-89
2022/06/03 03:43:06;;;;;;;37.28;17.50;;;;;;;-147.90;100.00;59510.75;4969341;28;20070;-89
2022/06/03 03:46:14;;;;;;;31.20;17.52;;;;;;;-147.90;100.00;59510.75;4969148;28;20101;-90
2022/06/03 03:49:14;;;;;;;35.08;16.60;;;;;;;-147.90;100.00;59510.75;4936375;28;20051;-90
2022/06/03 03:52:11;;;;;;;34.08;17.42;;;;;;;-147.90;100.00;59510.75;4950713;28;20047;-90
2022/06/03 03:55:07;;;;;;;38.05;18.27;;;;;;;-147.90;100.00;59510.75;4938099;28;20106;-89
2022/06/03 03:58:00;;;;;;;46.75;18.35;;;;;;;-147.90;100.00;59510.75;4949229;29;20047;-90
2022/06/03 04:01:03;;;;;;;42.15;17.95;;;;;;;-147.90;100.00;59510.75;4950506;28;20051;-90
2022/06/03 04:04:00;;;;;;;36.58;18.13;;;;;;;-147.90;100.00;59510.75;4928805;28;20074;-89
2022/06/03 04:06:56;;;;;;;35.95;17.85;;;;;;;-147.90;100.00;59510.75;4950325;29;20062;-91
2022/06/03 04:09:58;;;;;;;39.22;17.92;;;;;;;-147.90;100.00;59510.75;4950070;29;20043;-90
2022/06/03 04:12:58;;;;;;;38.97;18.63;;;;;;;-147.90;100.00;59510.75;4902660;29;20617;-91
2022/06/03 04:15:57;;;;;;;35.38;18.38;;;;;;;-147.90;100.00;59510.75;4949172;29;20395;-90
2022/06/03 04:18:50;;;;;;;40.60;18.17;;;;;;;-147.90;100.00;59510.75;4953494;29;20074;-90
2022/06/03 04:22:01;;;;;;;34.33;17.27;;;;;;;-147.90;100.00;59510.75;4954461;29;20051;-88
2022/06/03 04:25:09;;;;;;;38.92;17.33;;;;;;;-147.90;100.00;59510.75;4954123;29;21716;-90
2022/06/03 04:28:03;;;;;;;39.60;17.75;;;;;;;-147.90;100.00;59510.75;4952884;29;20395;-90
2022/06/03 04:30:59;;;;;;;33.70;17.38;;;;;;;-147.90;100.00;59510.75;4954133;29;20189;-89
2022/06/03 04:33:56;;;;;;;35.38;19.05;;;;;;;-147.90;100.00;59510.75;4953599;28;20063;-90
2022/06/03 04:37:11;;;;;;;34.22;17.48;;;;;;;-147.90;100.00;59510.75;4953181;29;20040;-90
2022/06/03 04:40:34;;;;;;;35.33;17.67;;;;;;;-147.90;100.00;59510.75;4954531;29;20441;-91
2022/06/03 04:43:38;;;;;;;37.28;19.77;;;;;;;-147.90;100.00;59510.75;4954255;28;20188;-90
2022/06/03 04:46:49;;;;;;;41.95;20.23;;;;;;;-147.90;100.00;59510.75;4954227;29;20120;-89
2022/06/03 04:49:58;;;;;;;42.95;20.13;;;;;;;-147.90;100.00;59510.75;4953706;29;20051;-90
2022/06/03 04:53:03;;;;;;;47.97;22.67;;;;;;;-147.90;100.00;59510.75;4952659;28;20106;-91
2022/06/03 04:56:11;;;;;;;48.33;23.75;;;;;;;-147.90;100.00;59510.75;4953576;28;20113;-90
2022/06/03 04:59:13;;;;;;;45.70;22.35;;;;;;;-147.90;100.00;59510.75;4952210;29;20080;-90
2022/06/03 05:02:12;;;;;;;43.05;21.20;;;;;;;-147.90;100.00;59510.75;4952686;29;20054;-90
2022/06/03 05:05:15;;;;;;;46.33;21.58;;;;;;;-147.90;100.00;59510.75;4952308;28;20051;-89
2022/06/03 05:08:14;;;;;;;60.47;24.88;;;;;;;-147.90;100.00;59510.75;4952815;29;20462;-90
2022/06/03 05:11:18;;;;;;;56.03;25.52;;;;;;;-147.90;100.00;59510.75;4924367;29;20047;-90
2022/06/03 05:14:25;;;;;;;50.78;23.10;;;;;;;-147.90;100.00;59510.75;4952494;28;20047;-89
2022/06/03 05:17:21;;;;;;;49.22;20.70;;;;;;;-147.90;100.00;59510.75;4953584;29;20043;-89
2022/06/03 05:20:19;;;;;;;;;;;;;;;-147.90;100.00;59510.75;4953628;29;20062;-90
2022/06/03 05:23:19;;;;;;;41.42;20.13;;;;;;;-147.90;100.00;59510.75;4952590;29;20020;-89
2022/06/03 05:26:22;;;;;;;43.10;19.17;;;;;;;-147.90;100.00;59510.75;4951398;28;20110;-89
2022/06/03 05:29:18;;;;;;;40.92;17.52;;;;;;;-147.90;100.00;59510.75;4953079;28;20051;-90
2022/06/03 05:32:29;;;;;;;36.70;18.05;;;;;;;-147.90;100.00;59510.75;4948796;29;20043;-89
2022/06/03 05:35:36;;;;;;;34.08;16.63;;;;;;;-147.90;100.00;59510.75;4883190;29;20049;-89
2022/06/03 05:38:22;;;;;;;35.58;15.48;;;;;;;-147.90;100.00;59510.75;4933748;28;20138;-90
2022/06/03 05:42:23;;;;;;;31.15;13.63;;;;;;;-147.90;100.00;59510.75;4943907;28;20150;-89
2022/06/03 05:44:05;;;;;;;31.20;13.68;;;;;;;-147.90;100.00;59510.75;4949603;28;20065;-89
2022/06/03 05:46:44;;;;;;;46.50;15.50;;;;;;;-147.90;100.00;59510.75;4952860;28;20047;-90
2022/06/03 05:49:22;;;;;;;37.80;13.77;;;;;;;-147.90;100.00;59510.75;4972440;28;20449;-89
2022/06/03 05:52:08;;;;;;;37.65;14.05;;;;;;;-147.90;100.00;59510.75;4971347;28;20485;-90
2022/06/03 05:54:55;;;;;;;34.15;12.70;;;;;;;-147.90;100.00;59510.75;4971426;28;20051;-89
2022/06/03 05:57:32;;;;;;;33.28;11.85;;;;;;;-147.90;100.00;59510.75;4971651;28;20043;-89
2022/06/03 06:00:29;;;;;;;29.70;11.30;;;;;;;-147.90;100.00;59510.75;4972656;28;20046;-89
2022/06/03 06:03:13;;;;;;;29.73;10.82;;;;;;;-147.90;100.00;59510.75;4971763;28;20043;-90
2022/06/03 06:05:56;;;;;;;30.70;11.00;;;;;;;-147.90;100.00;59510.75;4971817;28;20058;-89
2022/06/03 06:08:34;;;;;;;30.65;10.07;;;;;;;-147.90;100.00;59510.75;4971061;28;20042;-90
2022/06/03 06:11:07;;;;;;;22.83;8.98;;;;;;;-147.90;100.00;59510.75;4970188;28;20513;-89
2022/06/03 06:14:05;;;;;;;24.70;8.70;;;;;;;-147.90;100.00;59510.75;4970464;28;20102;-89
2022/06/03 06:16:36;;;;;;;19.90;8.02;;;;;;;-147.90;100.00;59510.75;4970585;28;20047;-91
2022/06/03 06:19:05;;;;;;;20.23;9.55;;;;;;;-147.90;100.00;59510.75;4970369;28;20043;-88
2022/06/03 06:21:51;;;;;;;17.90;7.45;;;;;;;-147.90;100.00;59510.75;4970165;28;20043;-88
2022/06/03 06:24:25;;;;;;;15.68;7.32;;;;;;;-147.90;100.00;59510.75;4970000;28;20489;-91
2022/06/03 06:27:22;;;;;;;14.65;6.63;;;;;;;-147.90;100.00;59510.75;4970520;28;20129;-90
2022/06/03 06:30:09;;;;;;;15.38;6.30;;;;;;;-147.90;100.00;59510.75;4929338;28;20129;-90
2022/06/03 06:33:05;;;;;;;9.23;5.38;;;;;;;-147.90;100.00;59510.75;4969990;28;20106;-91
2022/06/03 06:36:05;;;;;;;13.20;5.32;;;;;;;-147.90;100.00;59510.75;4970963;28;20485;-90
2022/06/03 06:38:44;;;;;;;7.20;4.20;;;;;;;-147.90;100.00;59510.75;4971115;28;20416;-89
2022/06/03 06:41:29;;;;;;;5.55;3.05;;;;;;;-147.90;100.00;59510.75;4970410;28;20046;-96
2022/06/03 06:44:08;;;;;;;5.15;2.90;;;;;;;-147.90;100.00;59510.75;4970405;28;20051;-90
2022/06/03 06:46:48;;;;;;;5.78;3.60;;;;;;;-147.90;100.00;59510.75;4969278;28;20055;-93
2022/06/03 06:49:23;;;;;;;6.70;2.90;;;;;;;-147.90;100.00;59510.75;4970601;28;20046;-92
2022/06/03 06:52:22;;;;;;;6.10;2.83;;;;;;;-147.90;100.00;59510.75;4971586;28;20094;-92
2022/06/03 06:55:00;;;;;;;5.53;3.50;;;;;;;-147.90;100.00;59510.75;4971152;28;20051;-88
2022/06/03 06:57:32;;;;;;;6.70;3.10;;;;;;;-147.90;100.00;59510.75;4969841;28;20060;-89
2022/06/03 07:00:05;;;;;;;4.50;2.95;;;;;;;-147.90;100.00;59510.75;4971276;28;20043;-88
2022/06/03 07:02:38;;;;;;;8.82;3.00;;;;;;;-147.90;100.00;59510.75;4971323;28;20489;-88
2022/06/03 07:05:10;;;;;;;5.63;3.03;;;;;;;-147.90;100.00;59510.75;4971615;28;20050;-87
2022/06/03 07:07:41;;;;;;;5.32;3.20;;;;;;;-147.90;100.00;59510.75;4969363;28;20063;-87
2022/06/03 07:10:16;;;;;;;5.82;2.72;;;;;;;-147.90;100.00;59510.75;4969282;28;20121;-88
2022/06/03 07:12:52;;;;;;;4.90;2.87;;;;;;;-147.90;100.00;59510.75;4970114;28;20084;-87
2022/06/03 07:15:25;;;;;;;8.90;3.28;;;;;;;-147.90;100.00;59510.75;4970211;28;20473;-91
2022/06/03 07:21:14;;;;;;;9.82;3.13;;;;;;;-147.90;100.00;59510.75;4970359;28;20046;-87
2022/06/03 07:23:48;;;;;;;5.63;3.08;;;;;;;-147.90;100.00;59510.75;4970748;28;20549;-89
2022/06/03 07:26:22;;;;;;;7.40;3.13;;;;;;;-147.90;100.00;59510.75;4969330;28;20122;-89
2022/06/03 07:28:57;;;;;;;6.63;3.60;;;;;;;-147.90;100.00;59510.75;4969650;28;20130;-85
2022/06/03 07:31:31;;;;;;;4.97;3.00;;;;;;;-147.90;100.00;59510.75;4970956;28;20059;-85
2022/06/03 07:34:03;;;;;;;7.13;3.90;;;;;;;-147.90;100.00;59510.75;4969229;28;20042;-90
2022/06/03 07:36:39;;;;;;;6.13;3.22;;;;;;;-147.90;100.00;59510.75;4969150;28;20453;-86
2022/06/03 07:39:27;;;;;;;5.80;3.72;;;;;;;-147.90;100.00;59510.75;4969642;28;20097;-89
2022/06/03 07:42:01;;;;;;;5.93;3.42;;;;;;;-147.90;100.00;59510.75;4970208;28;20417;-89
2022/06/03 07:44:40;;;;;;;6.43;3.45;;;;;;;-147.90;100.00;59510.75;4968732;28;20050;-91
2022/06/03 07:47:09;;;;;;;6.60;3.67;;;;;;;-147.90;100.00;59510.75;4969595;28;20058;-87
2022/06/03 07:49:39;;;;;;;9.05;3.85;;;;;;;-147.90;100.00;59510.75;4972940;28;20109;-86
2022/06/03 07:52:12;;;;;;;5.85;3.63;;;;;;;-147.90;100.00;59510.75;4974616;28;20097;-86
2022/06/03 07:54:43;;;;;;;6.32;4.22;;;;;;;-147.90;100.00;59510.75;4974453;28;20137;-88
2022/06/03 07:57:18;;;;;;;6.88;4.07;;;;;;;-147.90;100.00;59510.75;4974448;28;20054;-89
2022/06/03 07:59:46;;;;;;;5.15;2.90;;;;;;;-147.90;100.00;59510.75;4974285;28;20047;-87
2022/06/03 08:02:17;;;;;;;5.78;3.22;;;;;;;-147.90;100.00;59510.75;4974289;28;20095;-86
2022/06/03 08:04:47;;;;;;;5.35;3.33;;;;;;;-147.90;100.00;59510.75;4974759;28;20191;-88
2022/06/03 08:12:59;;;;;;;5.75;3.20;;;;;;;-147.90;100.00;59510.75;4954824;28;20046;-88
2022/06/03 08:15:33;;;;;;;6.60;3.28;;;;;;;-147.90;100.00;59510.75;4974302;28;20046;-91
2022/06/03 08:18:02;;;;;;;6.18;3.50;;;;;;;-147.90;100.00;59510.75;4974043;28;20047;-87
2022/06/03 08:20:31;;;;;;;8.32;4.70;;;;;;;-147.90;100.00;59510.75;4974132;28;20501;-90
2022/06/03 08:22:58;;;;;;;8.60;3.40;;;;;;;-147.90;100.00;59510.75;4973879;28;20503;-89
2022/06/03 08:25:28;;;;;;;5.93;3.38;;;;;;;-147.90;100.00;59510.75;4974175;28;20078;-87
2022/06/03 08:27:57;;;;;;;8.40;2.95;;;;;;;-147.90;100.00;59510.75;4974115;28;20493;-93
2022/06/03 08:30:27;;;;;;;5.68;3.03;;;;;;;-147.90;100.00;59510.75;4972202;28;20051;-93
2022/06/03 08:32:59;;;;;;;4.97;2.97;;;;;;;-147.90;100.00;59510.75;4972269;28;20051;-90
2022/06/03 08:35:28;;;;;;;5.32;3.50;;;;;;;-147.90;100.00;59510.75;4972395;28;20110;-89
2022/06/03 08:37:59;;;;;;;7.50;3.60;;;;;;;-147.90;100.00;59510.75;4972348;28;20050;-86
2022/06/03 08:40:36;;;;;;;5.43;3.33;;;;;;;-147.90;100.00;59510.75;4972510;28;20050;-87
2022/06/03 08:46:02;;;;;;;8.50;4.10;;;;;;;-147.90;100.00;59510.75;4972059;28;20099;-88
2022/06/03 08:48:34;;;;;;;7.55;3.53;;;;;;;-147.90;100.00;59510.75;4972439;28;20476;-90
2022/06/03 08:51:05;;;;;;;5.40;3.00;;;;;;;-147.90;100.00;59510.75;4972381;28;20039;-89
2022/06/03 08:53:42;;;;;;;6.60;3.55;;;;;;;-147.90;100.00;59510.75;4973627;28;20054;-91
2022/06/03 08:56:12;;;;;;;8.13;3.20;;;;;;;-147.90;100.00;59510.75;4973025;28;20387;-92
2022/06/03 08:58:45;;;;;;;22.10;10.38;;;;;;;-147.90;100.00;59510.75;4973186;28;20081;-88
2022/06/03 09:01:23;;;;;;;13.50;6.43;;;;;;;-147.90;100.00;59510.75;4969399;28;20038;-89
2022/06/03 09:03:59;;;;;;;5.97;3.70;;;;;;;-147.90;100.00;59510.75;4972443;28;20043;-91
2022/06/03 09:06:42;;;;;;;6.85;4.18;;;;;;;-147.90;100.00;59510.75;4973141;28;20446;-91
2022/06/03 09:09:17;;;;;;;6.43;4.05;;;;;;;-147.90;100.00;59510.75;4972643;28;20047;-92
2022/06/03 09:11:47;;;;;;;;;;;;;;;-147.90;100.00;59510.75;4971780;28;20047;-89
2022/06/03 09:14:21;;;;;;;8.57;3.65;;;;;;;-147.90;100.00;59510.75;4971577;28;19972;-90
2022/06/03 09:16:51;;;;;;;7.68;3.90;;;;;;;-147.90;100.00;59510.75;4972102;28;20055;-89
2022/06/03 09:19:26;;;;;;;8.60;3.80;;;;;;;-147.90;100.00;59510.75;4971623;28;20105;-88
2022/06/03 09:21:54;;;;;;;15.15;6.68;;;;;;;-147.90;100.00;59510.75;4973006;28;20109;-91
2022/06/03 09:24:24;;;;;;;6.10;3.75;;;;;;;-147.90;100.00;59510.75;4973289;28;20117;-88
2022/06/03 09:26:53;;;;;;;16.15;4.25;;;;;;;-147.90;100.00;59510.75;4972902;28;20097;-93
2022/06/03 09:29:21;;;;;;;8.82;4.03;;;;;;;-147.90;100.00;59510.75;4971546;28;20043;-86
2022/06/03 09:31:51;;;;;;;8.85;4.18;;;;;;;-147.90;100.00;59510.75;4973236;28;20121;-84
2022/06/03 09:34:22;;;;;;;9.77;3.60;;;;;;;-147.90;100.00;59510.75;4971214;28;20046;-87
2022/06/03 09:36:55;;;;;;;5.95;3.53;;;;;;;-147.90;100.00;59510.75;4971048;28;20046;-90
2022/06/03 09:39:23;;;;;;;6.78;3.95;;;;;;;-147.90;100.00;59510.75;4971111;28;20137;-89
2022/06/03 09:41:57;;;;;;;7.43;3.80;;;;;;;-147.90;100.00;59510.75;4970848;28;20102;-90
2022/06/03 09:44:27;;;;;;;6.93;3.60;;;;;;;-147.90;100.00;59510.75;4968209;28;20130;-86
2022/06/03 09:47:02;;;;;;;7.20;3.60;;;;;;;-147.90;100.00;59510.75;4972657;28;20050;-89
2022/06/03 09:49:32;;;;;;;8.15;3.97;;;;;;;-147.90;100.00;59510.75;4972517;28;22462;-89
2022/06/03 09:52:01;;;;;;;8.88;3.65;;;;;;;-147.90;100.00;59510.75;4972645;28;20058;-88
2022/06/03 09:54:34;;;;;;;4.97;3.88;;;;;;;-147.90;100.00;59510.75;4972350;28;20085;-89
2022/06/03 09:57:08;;;;;;;8.73;3.75;;;;;;;-147.90;100.00;59510.75;4972383;28;20055;-88
2022/06/03 09:59:36;;;;;;;9.20;4.38;;;;;;;-147.90;100.00;59510.75;4972248;28;20057;-91
2022/06/03 10:02:04;;;;;;;5.80;3.88;;;;;;;-147.90;100.00;59510.75;4972301;28;20054;-88
2022/06/03 10:04:32;;;;;;;6.07;3.30;;;;;;;-147.90;100.00;59510.75;4972018;28;20078;-91
2022/06/03 10:07:02;;;;;;;9.60;4.35;;;;;;;-147.90;100.00;59510.75;4972167;28;20477;-92
2022/06/03 10:17:51;;;;;;;5.03;3.45;;;;;;;-147.90;100.00;59510.75;4971307;28;20515;-89
2022/06/03 10:20:21;;;;;;;6.78;3.05;;;;;;;-147.90;100.00;59510.75;4971952;28;20390;-89
2022/06/03 10:22:48;;;;;;;5.70;2.55;;;;;;;-147.90;100.00;59510.75;4971870;28;20057;-90
2022/06/03 10:25:16;;;;;;;5.80;3.08;;;;;;;-147.90;100.00;59510.75;4971975;28;20051;-89
2022/06/03 10:27:44;;;;;;;6.18;3.10;;;;;;;-147.90;100.00;59510.75;4967860;28;20090;-88
2022/06/03 10:30:13;;;;;;;5.68;2.92;;;;;;;-147.90;100.00;59510.75;4970093;28;20453;-88
2022/06/03 10:32:40;;;;;;;6.53;3.40;;;;;;;-147.90;100.00;59510.75;4971813;28;20047;-88
2022/06/03 10:35:13;;;;;;;6.35;3.55;;;;;;;-147.90;100.00;59510.75;4972668;28;20091;-86
2022/06/03 10:37:50;;;;;;;4.95;3.00;;;;;;;-147.90;100.00;59510.75;4972263;28;20070;-86
2022/06/03 10:40:17;;;;;;;4.38;2.88;;;;;;;-147.90;100.00;59510.75;4970209;28;20050;-87
2022/06/03 10:42:47;;;;;;;4.40;3.03;;;;;;;-147.90;100.00;59510.75;4970178;28;20053;-90
2022/06/03 10:45:16;;;;;;;7.10;2.97;;;;;;;-147.90;100.00;59510.75;4971482;28;20395;-89
2022/06/03 10:47:45;;;;;;;4.45;2.80;;;;;;;-147.90;100.00;59510.75;4971341;28;20386;-90
2022/06/03 10:50:22;;;;;;;4.10;2.55;;;;;;;-147.90;100.00;59510.75;4971244;28;20101;-86
2022/06/03 11:01:34;;;;;;;7.15;2.75;;;;;;;-147.90;100.00;59510.75;4972011;28;20102;-90
2022/06/03 11:04:02;;;;;;;6.15;3.00;;;;;;;-147.90;100.00;59510.75;4972255;28;20548;-91
2022/06/03 11:06:36;;;;;;;7.07;3.00;;;;;;;-147.90;100.00;59510.75;4971176;28;20051;-86
2022/06/03 11:09:09;;;;;;;6.80;3.67;;;;;;;-147.90;100.00;59510.75;4969693;28;20051;-91
2022/06/03 11:11:47;;;;;;;4.65;2.92;;;;;;;-147.90;100.00;59510.75;4970394;28;20047;-89
2022/06/03 11:14:41;;;;;;;6.25;3.05;;;;;;;-147.90;100.00;59510.75;4968798;28;20086;-91
2022/06/03 11:17:12;;;;;;;6.93;3.30;;;;;;;-147.90;100.00;59510.75;4925944;28;20050;-88
2022/06/03 11:19:44;;;;;;;6.60;3.22;;;;;;;-147.90;100.00;59510.75;4969565;28;20134;-90
2022/06/03 11:22:19;;;;;;;6.63;2.83;;;;;;;-147.90;100.00;59510.75;4970987;28;20043;-92
2022/06/03 11:24:51;;;;;;;7.10;2.90;;;;;;;-147.90;100.00;59510.75;4970169;28;20412;-88
2022/06/03 11:27:20;;;;;;;4.43;2.88;;;;;;;-147.90;100.00;59510.75;4970810;28;20043;-87
2022/06/03 11:29:50;;;;;;;5.05;2.75;;;;;;;-147.90;100.00;59510.75;4970702;28;20055;-91
2022/06/03 11:32:18;;;;;;;7.90;3.03;;;;;;;-147.90;100.00;59510.75;4968580;28;20093;-88
2022/06/03 11:34:51;;;;;;;4.88;2.70;;;;;;;-147.90;100.00;59510.75;4970685;28;20042;-89
2022/06/03 11:37:24;;;;;;;4.07;2.60;;;;;;;-147.90;100.00;59510.75;4971115;28;20549;-90
2022/06/03 11:40:01;;;;;;;4.85;3.08;;;;;;;-147.90;100.00;59510.75;4972397;28;20047;-90
2022/06/03 11:42:35;;;;;;;3.67;2.65;;;;;;;-147.90;100.00;59510.75;4969789;28;20093;-94
2022/06/03 11:45:11;;;;;;;6.53;2.97;;;;;;;-147.90;100.00;59510.75;4970389;28;20501;-89
2022/06/03 11:47:49;;;;;;;6.35;2.95;;;;;;;-147.90;100.00;59510.75;4971077;28;20073;-89
2022/06/03 11:50:19;;;;;;;4.95;2.97;;;;;;;-147.90;100.00;59510.75;4969484;28;20078;-88
2022/06/03 11:52:56;;;;;;;5.65;3.38;;;;;;;-147.90;100.00;59510.75;4969275;28;20051;-88
2022/06/03 11:55:27;;;;;;;9.13;3.80;;;;;;;-147.90;100.00;59510.75;4969917;28;20051;-90
2022/06/03 11:58:01;;;;;;;4.78;3.22;;;;;;;-147.90;100.00;59510.75;4970447;28;20545;-90
2022/06/03 12:00:33;;;;;;;4.82;3.03;;;;;;;-147.90;100.00;59510.75;4970525;28;20109;-90
2022/06/03 12:03:26;;;;;;;4.97;3.75;;;;;;;-147.90;100.00;59510.75;4971135;28;20054;-86
2022/06/03 12:06:00;;;;;;;6.57;3.25;;;;;;;-147.90;100.00;59510.75;4969551;28;20054;-89
2022/06/03 12:08:41;;;;;;;5.88;3.50;;;;;;;-147.90;100.00;59510.75;4970715;28;20058;-87
2022/06/03 12:13:14;;;;;;;4.63;2.50;;;;;;;-147.90;100.00;59510.75;4970079;28;20051;-87
2022/06/03 12:14:30;;;;;;;7.55;4.30;;;;;;;-147.90;100.00;59510.75;4970354;28;20504;-87
2022/06/03 12:17:00;;;;;;;6.75;3.45;;;;;;;-147.90;100.00;59510.75;4970095;28;20046;-87
2022/06/03 12:19:39;;;;;;;4.78;2.88;;;;;;;-147.90;100.00;59510.75;4970306;28;20379;-87
2022/06/03 12:22:41;;;;;;;6.57;3.20;;;;;;;-147.90;100.00;59510.75;4969609;28;20094;-88
2022/06/03 12:25:44;;;;;;;5.57;2.88;;;;;;;-147.90;100.00;59510.75;4970511;28;20047;-90
2022/06/03 12:28:23;;;;;;;5.03;2.70;;;;;;;-147.90;100.00;59510.75;4968295;28;20532;-90
2022/06/03 12:30:52;;;;;;;5.05;3.10;;;;;;;-147.90;100.00;59510.75;4969541;28;20103;-89
2022/06/03 12:33:29;;;;;;;5.38;3.35;;;;;;;-147.90;100.00;59510.75;4968808;28;20047;-84
2022/06/03 12:36:05;;;;;;;5.70;3.42;;;;;;;-147.90;100.00;59510.75;4970274;28;20047;-90
2022/06/03 12:38:51;;;;;;;8.95;3.47;;;;;;;-147.90;100.00;59510.75;4975234;28;20053;-88
2022/06/03 12:41:55;;;;;;;6.93;3.05;;;;;;;-147.90;100.00;59510.75;4971681;28;20058;-87
2022/06/03 12:44:40;;;;;;;5.28;2.72;;;;;;;-147.90;100.00;59510.75;4973208;28;20051;-90
2022/06/03 12:47:48;;;;;;;4.72;2.80;;;;;;;-147.90;100.00;59510.75;4971814;28;20053;-87
2022/06/03 12:50:54;;;;;;;9.60;3.88;;;;;;;-147.90;100.00;59510.75;4973192;28;20053;-84
2022/06/03 12:53:45;;;;;;;4.35;2.67;;;;;;;-147.90;100.00;59510.75;4928417;28;20085;-85